UGKO/KIU METAR and TAF weather

Enter ICAO airport designator
Station Type Date Time Source
UGKO METAR 2022/01/18 07:00 UTC NOAA

UGKO 180700Z 08010KT 9999 BKN065 M00/M06 Q1017 NOSIG


Station Type Date Time Source
UGKO Decoded METAR 2022/01/18 07:00 UTC NOAA

Station name not available
Jan 18, 2022 - 02:00 AM EST / 2022.01.18 0700 UTC
Wind: from the E (080 degrees) at 12 MPH (10 KT):0
Visibility: greater than 7 mile(s):0
Sky conditions: mostly cloudy
Temperature: 32 F (0 C)
Windchill: 23 F (-5 C):1
Dew Point: 21 F (-6 C)
Relative Humidity: 63%
Pressure (altimeter): 30.03 in. Hg (1017 hPa)
ob: UGKO 180700Z 08010KT 9999 BKN065 M00/M06 Q1017 NOSIG
cycle: 7

Station Type Date Time Source
UGKO TAF 2022/01/18 06:05 UTC NOAA

TAF UGKO 180500Z 1806/1906 08007KT 9999 OVC060 TX03/1811Z TNM01/1806Z
BECMG 1816/1819 4000 SHSN SCT020CB OVC040
TEMPO 1900/1906 25010KT

Example: see airport list